Time;durP1;ratioP1;P1;durP2;ratioP2;P2;SDS_P1;SDS_P2;PMS_P1;PMS_P2;Temp;Humidity;BMP_temperature;BMP_pressure;BME280_temperature;BME280_humidity;BME280_pressure;Samples;Min_cycle;Max_cycle;Signal;HPM_P1;HPM_P2
2020/12/17 00:00:50;;;;;;;65.87;30.37;;;;;;;6.95;90.14;101189.72;5156238;27;20838;-61
2020/12/17 00:03:16;;;;;;;69.30;30.90;;;;;;;6.99;89.77;101183.09;5160427;27;20462;-61
2020/12/17 00:05:43;;;;;;;74.07;33.77;;;;;;;6.84;90.10;101191.59;5156092;27;20480;-61
2020/12/17 00:08:11;;;;;;;62.30;30.23;;;;;;;6.82;90.19;101190.59;5160734;27;20554;-61
2020/12/17 00:10:39;;;;;;;68.87;31.83;;;;;;;6.77;90.17;101176.59;5158469;27;20557;-61
2020/12/17 00:13:05;;;;;;;65.80;30.20;;;;;;;6.77;90.19;101176.59;5160320;27;20552;-61
2020/12/17 00:15:32;;;;;;;73.20;33.67;;;;;;;6.67;90.68;101171.69;5157854;27;20493;-61
2020/12/17 00:17:58;;;;;;;62.30;29.37;;;;;;;6.74;90.40;101171.28;5160115;27;20464;-60
2020/12/17 00:20:25;;;;;;;71.87;33.77;;;;;;;6.64;90.80;101168.91;5154537;27;20485;-61
2020/12/17 00:22:52;;;;;;;78.37;31.60;;;;;;;6.55;90.99;101162.41;5160132;27;20450;-61
2020/12/17 00:25:19;;;;;;;78.03;33.40;;;;;;;6.66;90.59;101165.66;5158209;27;20560;-61
2020/12/17 00:27:47;;;;;;;68.67;30.03;;;;;;;6.64;90.72;101156.97;5159901;27;20507;-60
2020/12/17 00:30:16;;;;;;;71.23;30.73;;;;;;;6.59;90.47;101153.22;5158380;27;20479;-61
2020/12/17 00:32:43;;;;;;;66.87;30.47;;;;;;;6.57;90.61;101145.44;5159701;27;20457;-61
2020/12/17 00:35:10;;;;;;;66.57;29.97;;;;;;;6.56;90.76;101151.34;5157769;27;20543;-60
2020/12/17 00:37:40;;;;;;;60.80;29.57;;;;;;;6.52;90.40;101148.50;5159721;27;20492;-60
2020/12/17 00:40:08;;;;;;;64.97;30.43;;;;;;;6.53;90.88;101147.69;5158306;27;20478;-60
2020/12/17 00:42:39;;;;;;;64.20;30.73;;;;;;;6.49;90.57;101156.88;5159636;27;20484;-61
2020/12/17 00:45:06;;;;;;;62.50;29.40;;;;;;;6.47;90.68;101159.31;5157521;27;20913;-60
2020/12/17 00:47:33;;;;;;;74.33;29.60;;;;;;;6.42;90.90;101154.69;5159712;27;20465;-60
2020/12/17 00:49:59;;;;;;;71.50;31.20;;;;;;;6.44;90.59;101148.00;5158025;27;20508;-61
2020/12/17 00:52:26;;;;;;;69.13;29.53;;;;;;;6.42;90.77;101147.00;5159690;27;20555;-60
2020/12/17 00:54:53;;;;;;;65.73;29.73;;;;;;;6.50;90.43;101140.69;5157094;27;20478;-60
2020/12/17 00:57:25;;;;;;;65.17;29.43;;;;;;;6.50;90.18;101135.56;5159374;27;20493;-61
2020/12/17 00:59:53;;;;;;;73.13;31.37;;;;;;;6.39;90.81;101134.88;5157341;27;20478;-61
2020/12/17 01:02:20;;;;;;;71.90;30.03;;;;;;;6.39;90.86;101133.97;5159127;27;20460;-61
2020/12/17 01:04:47;;;;;;;63.63;28.53;;;;;;;6.48;90.38;101134.59;5157180;27;20475;-61
2020/12/17 01:07:14;;;;;;;64.07;28.40;;;;;;;6.42;90.35;101131.63;5159188;27;20801;-60
2020/12/17 01:09:41;;;;;;;69.50;32.40;;;;;;;6.39;90.74;101123.72;5157816;27;20476;-60
2020/12/17 01:12:07;;;;;;;70.07;29.70;;;;;;;6.41;90.60;101127.31;5158699;27;20543;-60
2020/12/17 01:14:34;;;;;;;65.27;30.17;;;;;;;6.37;90.58;101117.63;5156853;27;20924;-60
2020/12/17 01:17:03;;;;;;;71.83;32.17;;;;;;;6.38;90.69;101117.72;5158947;27;20464;-61
2020/12/17 01:19:30;;;;;;;68.57;30.27;;;;;;;6.44;90.47;101110.44;5157497;27;20854;-59
2020/12/17 01:21:57;;;;;;;67.70;30.97;;;;;;;6.53;90.10;101117.84;5158890;27;20487;-61
2020/12/17 01:24:23;;;;;;;70.40;30.30;;;;;;;6.44;90.17;101117.22;5156824;27;20476;-60
2020/12/17 01:26:52;;;;;;;64.87;29.80;;;;;;;6.30;90.23;101116.38;5158589;27;20448;-60
2020/12/17 01:29:19;;;;;;;71.60;30.37;;;;;;;6.32;90.52;101118.22;5157014;27;20455;-59
2020/12/17 01:31:46;;;;;;;63.13;29.83;;;;;;;6.32;90.22;101127.59;5158619;27;20452;-60
2020/12/17 01:34:14;;;;;;;65.90;28.07;;;;;;;6.36;90.24;101124.41;5155941;27;20982;-60
2020/12/17 01:36:40;;;;;;;63.30;29.30;;;;;;;6.43;89.92;101134.31;5158375;27;20492;-60
2020/12/17 01:39:07;;;;;;;60.63;27.50;;;;;;;6.25;90.36;101130.53;5156798;27;20452;-60
2020/12/17 01:41:33;;;;;;;59.67;27.80;;;;;;;6.27;90.27;101124.75;5158413;27;20964;-59
2020/12/17 01:44:01;;;;;;;71.97;28.70;;;;;;;6.22;90.49;101126.09;5158154;27;20452;-59
2020/12/17 01:46:28;;;;;;;67.70;28.00;;;;;;;6.23;90.54;101122.75;5157834;27;20536;-60
2020/12/17 01:48:56;;;;;;;67.73;26.20;;;;;;;6.08;90.60;101128.66;5158259;27;20464;-59
2020/12/17 01:51:23;;;;;;;62.00;27.83;;;;;;;6.09;90.80;101129.53;5156715;27;20475;-60
2020/12/17 01:53:52;;;;;;;72.37;29.20;;;;;;;6.13;90.61;101131.50;5157737;27;20963;-60
2020/12/17 01:56:22;;;;;;;62.90;29.10;;;;;;;6.16;90.33;101125.69;5156093;27;20574;-60
2020/12/17 01:58:53;;;;;;;64.20;28.40;;;;;;;6.06;90.70;101134.47;5158150;27;20456;-59
2020/12/17 02:01:21;;;;;;;65.40;28.20;;;;;;;5.99;91.04;101128.00;5156461;27;20480;-60
2020/12/17 02:03:48;;;;;;;62.53;27.70;;;;;;;6.15;90.78;101132.50;5158177;27;20452;-61
2020/12/17 02:06:15;;;;;;;66.73;28.27;;;;;;;6.06;90.58;101124.22;5155735;27;20464;-59
2020/12/17 02:08:42;;;;;;;67.00;27.67;;;;;;;6.08;90.47;101123.53;5157966;27;20491;-60
2020/12/17 02:11:09;;;;;;;59.80;27.30;;;;;;;6.06;90.79;101125.06;5156379;27;20859;-59
2020/12/17 02:13:37;;;;;;;65.17;27.87;;;;;;;6.08;90.47;101133.78;5158137;27;20547;-61
2020/12/17 02:16:05;;;;;;;56.83;26.60;;;;;;;6.13;90.28;101123.81;5145131;27;20489;-60
2020/12/17 02:18:31;;;;;;;58.97;26.73;;;;;;;6.03;90.44;101122.34;5137294;27;20493;-61
2020/12/17 02:20:58;;;;;;;60.63;26.47;;;;;;;6.11;90.26;101125.41;5135666;27;20509;-60
2020/12/17 02:23:25;;;;;;;58.60;26.40;;;;;;;6.07;90.23;101123.41;5136539;27;20966;-60
2020/12/17 02:25:53;;;;;;;60.67;26.30;;;;;;;6.18;90.16;101124.13;5135469;27;20479;-60
2020/12/17 02:28:20;;;;;;;54.53;24.43;;;;;;;6.16;89.76;101116.31;5137407;28;20958;-60
2020/12/17 02:30:47;;;;;;;61.47;28.10;;;;;;;6.16;89.82;101115.44;5135284;28;20778;-59
2020/12/17 02:33:14;;;;;;;58.03;27.50;;;;;;;6.17;89.87;101110.44;5137234;28;20452;-59
2020/12/17 02:35:41;;;;;;;55.07;27.07;;;;;;;6.13;89.68;101105.00;5135147;28;20535;-60
2020/12/17 02:38:08;;;;;;;58.87;26.90;;;;;;;6.11;90.16;101109.13;5137539;28;20453;-60
2020/12/17 02:40:35;;;;;;;56.37;26.33;;;;;;;6.04;90.17;101102.72;5135488;28;20784;-60
2020/12/17 02:43:03;;;;;;;54.77;26.00;;;;;;;5.91;90.47;101103.56;5136998;28;20460;-60
2020/12/17 02:45:29;;;;;;;51.30;23.60;;;;;;;5.91;90.42;101109.53;5135106;28;20556;-60
2020/12/17 02:47:56;;;;;;;57.33;26.40;;;;;;;5.97;90.41;101108.19;5137210;28;20552;-60
2020/12/17 02:50:24;;;;;;;53.87;25.40;;;;;;;5.92;90.63;101110.44;5135362;28;20485;-60
2020/12/17 02:52:50;;;;;;;51.70;26.30;;;;;;;5.92;90.33;101108.78;5137228;28;20453;-59
2020/12/17 02:55:17;;;;;;;50.80;24.83;;;;;;;5.94;90.67;101114.00;5132000;27;20572;-61
2020/12/17 02:57:44;;;;;;;57.43;25.53;;;;;;;5.89;90.37;101115.38;5137111;28;20485;-60
2020/12/17 03:00:12;;;;;;;52.97;25.07;;;;;;;5.88;90.59;101114.47;5135465;28;20835;-59
2020/12/17 03:02:38;;;;;;;55.20;24.23;;;;;;;5.86;90.32;101113.50;5136893;28;20818;-60
2020/12/17 03:05:05;;;;;;;47.47;24.10;;;;;;;5.88;90.45;101105.91;5134995;28;20512;-59
2020/12/17 03:07:32;;;;;;;52.73;24.30;;;;;;;5.86;90.62;101110.94;5136983;28;20878;-60
2020/12/17 03:10:00;;;;;;;56.00;26.70;;;;;;;5.97;90.22;101109.09;5135343;28;20552;-60
2020/12/17 03:12:26;;;;;;;57.63;24.37;;;;;;;6.00;89.77;101105.84;5136804;28;20553;-60
2020/12/17 03:14:53;;;;;;;46.50;22.87;;;;;;;5.94;90.03;101098.63;5134637;28;20917;-60
2020/12/17 03:17:21;;;;;;;55.27;25.43;;;;;;;5.80;90.37;101096.03;5136976;28;20452;-60
2020/12/17 03:19:48;;;;;;;53.60;25.23;;;;;;;5.91;90.34;101101.00;5135254;28;20475;-60
2020/12/17 03:22:15;;;;;;;54.17;25.03;;;;;;;5.97;90.04;101098.84;5136655;28;20462;-60
2020/12/17 03:24:41;;;;;;;58.30;25.20;;;;;;;5.94;90.04;101096.06;5149266;27;20514;-60
2020/12/17 03:27:08;;;;;;;51.77;22.87;;;;;;;5.90;90.51;101099.22;5157178;27;20469;-59
2020/12/17 03:29:34;;;;;;;55.90;24.10;;;;;;;5.88;90.12;101085.41;5155804;27;20495;-60
2020/12/17 03:32:01;;;;;;;57.90;27.43;;;;;;;5.95;90.01;101083.38;5157782;27;20547;-59
2020/12/17 03:34:29;;;;;;;54.23;25.07;;;;;;;6.01;89.89;101090.56;5156809;27;20532;-61
2020/12/17 03:36:56;;;;;;;56.57;25.10;;;;;;;6.00;89.73;101082.78;5160824;27;20479;-61
2020/12/17 03:39:22;;;;;;;52.83;25.20;;;;;;;6.10;89.45;101089.44;5159675;27;20482;-59
2020/12/17 03:41:49;;;;;;;49.33;23.80;;;;;;;5.97;89.69;101088.59;5161377;27;20467;-59
2020/12/17 03:44:16;;;;;;;49.10;22.30;;;;;;;5.89;89.85;101087.22;5158752;27;20497;-59
2020/12/17 03:46:43;;;;;;;47.23;23.13;;;;;;;5.84;90.23;101086.88;5161416;27;20841;-60
2020/12/17 03:49:09;;;;;;;47.53;23.53;;;;;;;5.93;90.10;101081.47;5159603;27;20455;-60
2020/12/17 03:51:37;;;;;;;49.77;22.77;;;;;;;5.89;90.11;101076.97;5161099;27;20569;-61
2020/12/17 03:54:04;;;;;;;49.00;22.93;;;;;;;5.97;90.01;101080.00;5159174;27;20452;-60
2020/12/17 03:56:31;;;;;;;46.83;22.93;;;;;;;6.03;89.71;101078.78;5160407;27;20505;-60
2020/12/17 03:58:57;;;;;;;52.20;23.67;;;;;;;5.93;89.84;101076.34;5160657;27;20877;-60
2020/12/17 04:01:24;;;;;;;51.50;22.63;;;;;;;6.04;89.52;101074.53;5158887;27;20472;-60
2020/12/17 04:03:51;;;;;;;58.37;23.80;;;;;;;5.90;89.67;101076.19;5161101;27;20464;-59
2020/12/17 04:06:18;;;;;;;54.23;24.87;;;;;;;5.94;89.80;101078.13;5158725;27;20483;-59
2020/12/17 04:08:57;;;;;;;62.33;27.10;;;;;;;5.86;89.90;101080.22;5160851;27;20759;-60
2020/12/17 04:11:24;;;;;;;44.30;22.90;;;;;;;5.85;89.87;101078.41;5158945;27;20480;-59
2020/12/17 04:13:50;;;;;;;49.03;23.00;;;;;;;5.81;90.27;101081.56;5160666;27;20546;-59
2020/12/17 04:16:51;;;;;;;50.47;23.83;;;;;;;5.81;90.18;101077.31;5158141;27;20490;-60
2020/12/17 04:19:18;;;;;;;50.53;23.03;;;;;;;5.89;90.09;101070.16;5158805;27;20550;-59
2020/12/17 04:21:45;;;;;;;49.23;21.27;;;;;;;5.87;89.68;101076.84;5160343;27;20759;-60
2020/12/17 04:24:13;;;;;;;51.17;24.60;;;;;;;5.76;90.30;101077.81;5158572;27;20452;-59
2020/12/17 04:26:50;;;;;;;53.13;24.13;;;;;;;5.74;90.29;101075.16;5160224;27;20547;-60
2020/12/17 04:29:17;;;;;;;49.13;23.00;;;;;;;5.83;90.16;101074.00;5158423;27;20456;-60
2020/12/17 04:31:44;;;;;;;52.63;23.10;;;;;;;5.75;89.94;101071.78;5159857;27;20500;-59
2020/12/17 04:34:10;;;;;;;50.23;23.00;;;;;;;5.64;90.51;101072.78;5158200;27;20538;-60
2020/12/17 04:36:37;;;;;;;47.10;22.63;;;;;;;5.73;90.26;101075.94;5159990;27;20800;-60
2020/12/17 04:39:17;;;;;;;49.53;22.67;;;;;;;5.65;90.02;101085.66;5158682;27;20791;-59
2020/12/17 04:41:46;;;;;;;49.90;25.13;;;;;;;5.67;90.20;101078.09;5159816;27;20452;-60
2020/12/17 04:44:15;;;;;;;48.07;24.47;;;;;;;5.72;90.03;101076.72;5157450;27;20451;-59
2020/12/17 04:46:43;;;;;;;53.27;23.00;;;;;;;5.69;90.17;101071.38;5159174;27;20459;-60
2020/12/17 04:49:11;;;;;;;47.00;21.67;;;;;;;5.65;90.26;101071.97;5158305;27;20448;-60
2020/12/17 04:51:39;;;;;;;53.33;25.13;;;;;;;5.70;90.27;101068.06;5159571;27;20514;-59
2020/12/17 04:54:07;;;;;;;49.40;23.40;;;;;;;5.66;90.29;101066.06;5158100;27;20460;-59
2020/12/17 04:56:38;;;;;;;58.97;23.63;;;;;;;5.64;90.50;101077.91;5159649;27;20487;-59
2020/12/17 04:59:05;;;;;;;51.53;22.70;;;;;;;5.67;90.59;101072.97;5158140;27;20458;-60
2020/12/17 05:01:32;;;;;;;50.00;23.40;;;;;;;5.68;90.43;101065.41;5159332;27;20586;-60
2020/12/17 05:03:59;;;;;;;56.53;23.80;;;;;;;5.81;90.05;101066.22;5159193;27;20495;-60
2020/12/17 05:06:26;;;;;;;60.00;24.00;;;;;;;5.85;90.24;101059.63;5157836;27;20483;-60
2020/12/17 05:08:53;;;;;;;55.33;25.03;;;;;;;5.81;90.21;101050.84;5159371;27;20547;-60
2020/12/17 05:11:20;;;;;;;50.60;24.07;;;;;;;5.75;90.32;101046.19;5157730;27;20563;-60
2020/12/17 05:13:48;;;;;;;52.63;23.50;;;;;;;5.73;90.45;101047.78;5159245;27;20455;-60
2020/12/17 05:16:15;;;;;;;49.70;23.60;;;;;;;5.65;90.73;101034.44;5157268;27;20536;-61
2020/12/17 05:18:42;;;;;;;53.27;25.00;;;;;;;5.73;90.56;101037.53;5159553;27;20929;-59
2020/12/17 05:21:09;;;;;;;53.80;22.30;;;;;;;5.75;90.63;101028.25;5157546;27;20480;-59
2020/12/17 05:23:36;;;;;;;51.30;23.77;;;;;;;5.73;90.43;101023.81;5158835;27;20455;-60
2020/12/17 05:26:03;;;;;;;50.93;23.10;;;;;;;5.66;90.60;101031.09;5156613;27;20554;-60
2020/12/17 05:28:29;;;;;;;44.83;22.03;;;;;;;5.74;90.46;101052.09;5159129;27;20870;-59
2020/12/17 05:30:57;;;;;;;46.30;21.67;;;;;;;5.76;90.26;101058.22;5157381;27;20780;-59
2020/12/17 05:33:23;;;;;;;51.27;24.63;;;;;;;5.69;90.08;101050.91;5159149;27;20490;-60
2020/12/17 05:35:50;;;;;;;48.97;23.77;;;;;;;5.80;90.25;101037.13;5156218;27;20567;-59
2020/12/17 05:38:22;;;;;;;44.87;22.03;;;;;;;5.73;89.97;101047.78;5158822;27;20460;-59
2020/12/17 05:40:49;;;;;;;49.27;23.70;;;;;;;5.61;90.15;101052.97;5157240;27;20992;-60
2020/12/17 05:43:20;;;;;;;50.40;23.63;;;;;;;5.68;90.18;101054.25;5158631;27;20458;-60
2020/12/17 05:45:47;;;;;;;54.53;24.70;;;;;;;5.72;90.00;101056.25;5156645;27;20472;-59
2020/12/17 05:48:17;;;;;;;44.47;20.90;;;;;;;5.67;89.90;101072.97;5158615;27;20480;-60
2020/12/17 05:50:57;;;;;;;47.07;22.23;;;;;;;5.65;90.11;101065.19;5155188;27;20558;-60
2020/12/17 05:53:24;;;;;;;54.63;23.73;;;;;;;5.67;90.11;101068.75;5158682;27;20447;-59
2020/12/17 05:55:52;;;;;;;58.60;24.27;;;;;;;5.64;90.00;101072.78;5156570;27;20578;-59
2020/12/17 05:58:19;;;;;;;48.33;22.50;;;;;;;5.65;90.32;101084.78;5157487;27;20838;-59
2020/12/17 06:00:48;;;;;;;46.60;22.70;;;;;;;5.60;90.46;101074.25;5156554;27;20478;-59
2020/12/17 06:03:26;;;;;;;46.30;22.10;;;;;;;5.64;90.70;101070.22;5158121;27;20458;-57
2020/12/17 06:05:57;;;;;;;49.73;22.37;;;;;;;5.71;90.50;101074.97;5154046;27;20951;-60
2020/12/17 06:08:29;;;;;;;46.53;23.47;;;;;;;5.75;90.10;101071.78;5158553;27;20550;-60
2020/12/17 06:11:03;;;;;;;44.13;21.97;;;;;;;5.72;90.09;101071.59;5156644;27;20507;-60
2020/12/17 06:13:32;;;;;;;46.23;21.60;;;;;;;5.65;90.36;101064.31;5158184;27;20885;-60
2020/12/17 06:16:03;;;;;;;49.20;24.40;;;;;;;5.61;90.40;101067.44;5156197;27;20481;-60
2020/12/17 06:18:36;;;;;;;47.10;23.20;;;;;;;5.64;90.75;101065.09;5158153;27;20448;-59
2020/12/17 06:21:03;;;;;;;46.53;21.57;;;;;;;5.64;90.69;101060.84;5156635;27;20491;-59
2020/12/17 06:23:31;;;;;;;43.67;20.80;;;;;;;5.72;90.16;101055.34;5157837;27;20458;-60
2020/12/17 06:25:59;;;;;;;46.17;22.00;;;;;;;5.71;89.98;101056.13;5155982;27;20505;-60
2020/12/17 06:28:37;;;;;;;47.83;22.47;;;;;;;5.66;90.05;101048.16;5157707;27;20459;-60
2020/12/17 06:31:04;;;;;;;43.47;21.97;;;;;;;5.74;89.97;101039.28;5156243;27;20485;-60
2020/12/17 06:33:35;;;;;;;44.17;20.47;;;;;;;5.80;89.91;101044.81;5157634;27;20504;-60
2020/12/17 06:36:04;;;;;;;43.33;21.37;;;;;;;5.91;89.37;101021.59;5155818;27;20487;-60
2020/12/17 06:38:30;;;;;;;38.83;20.47;;;;;;;5.94;89.14;101022.69;5157686;27;20456;-59
2020/12/17 06:41:14;;;;;;;41.47;21.40;;;;;;;5.87;89.39;101019.63;5156223;27;20813;-60
2020/12/17 06:43:41;;;;;;;42.17;20.47;;;;;;;5.84;89.14;101040.78;5158086;27;20755;-59
2020/12/17 06:46:28;;;;;;;41.57;20.80;;;;;;;5.92;89.39;101031.06;5155965;27;20468;-58
2020/12/17 06:48:56;;;;;;;45.57;21.70;;;;;;;5.94;89.06;101021.78;5157957;27;20459;-61
2020/12/17 06:51:31;;;;;;;43.70;22.17;;;;;;;5.98;88.92;101021.19;5156160;27;20475;-60
2020/12/17 06:53:58;;;;;;;42.30;20.80;;;;;;;5.93;88.75;101023.47;5157753;27;20449;-60
2020/12/17 06:56:25;;;;;;;43.10;21.73;;;;;;;5.97;88.82;101019.44;5156001;27;20649;-60
2020/12/17 06:59:13;;;;;;;42.77;20.90;;;;;;;6.04;88.68;101016.50;5157664;27;20822;-59
2020/12/17 07:01:39;;;;;;;39.90;20.33;;;;;;;5.94;88.83;101014.09;5157174;27;20466;-60
2020/12/17 07:04:07;;;;;;;39.30;20.80;;;;;;;6.01;88.84;101013.69;5155870;27;20463;-59
2020/12/17 07:06:34;;;;;;;37.20;19.40;;;;;;;6.04;88.66;101018.16;5157503;27;20481;-59
2020/12/17 07:09:00;;;;;;;43.17;21.43;;;;;;;5.89;88.76;101018.94;5158629;27;20470;-59
2020/12/17 07:11:34;;;;;;;36.53;17.97;;;;;;;6.11;88.82;101001.53;5161442;27;20479;-60
2020/12/17 07:14:01;;;;;;;41.17;20.10;;;;;;;6.05;88.45;100981.53;5161181;27;20451;-60
2020/12/17 07:16:28;;;;;;;35.80;18.97;;;;;;;5.99;88.87;100961.50;5161465;27;20924;-60
2020/12/17 07:19:16;;;;;;;44.50;20.70;;;;;;;6.01;89.02;100962.47;5161555;27;20552;-60
2020/12/17 07:21:43;;;;;;;38.43;18.73;;;;;;;5.97;89.20;100965.66;5161105;27;20476;-60
2020/12/17 07:24:21;;;;;;;37.53;18.17;;;;;;;5.95;89.18;100964.69;5159657;27;20464;-59
2020/12/17 07:26:48;;;;;;;37.00;18.43;;;;;;;6.03;89.08;100971.19;5161308;27;20440;-59
2020/12/17 07:29:15;;;;;;;39.03;17.70;;;;;;;6.13;88.64;100982.00;5159676;27;20501;-61
2020/12/17 07:31:42;;;;;;;37.40;19.23;;;;;;;6.08;88.64;100990.31;5160544;27;20536;-59
2020/12/17 07:34:15;;;;;;;42.37;19.73;;;;;;;6.01;88.77;101000.91;5159238;27;20764;-59
2020/12/17 07:36:44;;;;;;;37.43;19.40;;;;;;;6.07;88.52;101001.31;5161084;27;20510;-60
2020/12/17 07:39:11;;;;;;;38.33;19.87;;;;;;;5.99;88.63;101009.28;5159672;27;20456;-60
2020/12/17 07:41:38;;;;;;;35.23;17.77;;;;;;;5.92;89.01;101015.69;5161196;27;20746;-59
2020/12/17 07:44:05;;;;;;;33.13;17.30;;;;;;;5.94;88.66;101042.28;5159093;27;20880;-59
2020/12/17 07:46:38;;;;;;;35.60;16.57;;;;;;;5.97;88.52;101042.50;5161102;27;20502;-59
2020/12/17 07:49:20;;;;;;;39.00;16.03;;;;;;;5.98;88.59;101028.88;5159492;27;20552;-60
2020/12/17 07:51:47;;;;;;;32.43;16.00;;;;;;;6.00;88.27;101041.81;5161009;27;20508;-59
2020/12/17 07:54:19;;;;;;;33.70;17.83;;;;;;;6.02;88.61;101038.59;5159292;27;20458;-60
2020/12/17 07:56:46;;;;;;;36.93;19.07;;;;;;;6.00;88.42;101042.66;5160842;27;20471;-59
2020/12/17 07:59:13;;;;;;;35.83;17.37;;;;;;;5.93;88.85;101041.41;5158562;27;20477;-59
2020/12/17 08:01:40;;;;;;;37.47;18.23;;;;;;;6.04;88.73;101041.22;5160459;27;20943;-59
2020/12/17 08:04:08;;;;;;;36.00;17.93;;;;;;;6.08;88.26;101031.31;5158737;27;20819;-60
2020/12/17 08:06:34;;;;;;;30.77;16.57;;;;;;;6.13;88.56;101008.53;5160767;27;20791;-60
2020/12/17 08:09:05;;;;;;;32.90;16.90;;;;;;;6.08;88.54;101036.41;5160274;27;20542;-61
2020/12/17 08:11:46;;;;;;;36.60;19.07;;;;;;;6.03;89.14;101047.16;5160360;27;20447;-60
2020/12/17 08:14:12;;;;;;;35.03;18.20;;;;;;;6.04;89.00;101039.56;5158883;27;20456;-59
2020/12/17 08:16:39;;;;;;;32.90;17.87;;;;;;;6.07;88.58;101047.44;5160264;27;20536;-60
2020/12/17 08:19:06;;;;;;;34.93;17.00;;;;;;;6.02;89.30;101043.72;5158687;27;20881;-59
2020/12/17 08:21:33;;;;;;;34.03;18.20;;;;;;;5.99;89.27;101043.47;5159331;27;20490;-60
2020/12/17 08:24:00;;;;;;;34.10;17.40;;;;;;;6.07;88.97;101044.88;5159883;27;20480;-59
2020/12/17 08:26:29;;;;;;;31.80;17.47;;;;;;;6.07;89.10;101034.63;5159810;27;20483;-59
2020/12/17 08:28:56;;;;;;;32.80;17.53;;;;;;;6.07;88.98;101044.88;5160112;27;20454;-60
2020/12/17 08:31:24;;;;;;;34.63;17.23;;;;;;;6.11;89.09;101052.78;5158305;27;20480;-59
2020/12/17 08:33:53;;;;;;;39.40;18.77;;;;;;;6.03;89.19;101042.03;5160182;27;20452;-60
2020/12/17 08:36:22;;;;;;;34.63;17.47;;;;;;;6.20;89.26;101035.41;5158076;27;20489;-60
2020/12/17 08:38:57;;;;;;;35.73;17.30;;;;;;;6.09;89.28;101029.59;5159910;27;20458;-61
2020/12/17 08:41:29;;;;;;;34.37;17.53;;;;;;;6.11;89.29;101039.97;5158229;27;20476;-60
2020/12/17 08:44:00;;;;;;;37.90;18.90;;;;;;;6.12;89.29;101034.03;5159643;27;20801;-60
2020/12/17 08:46:27;;;;;;;39.30;17.13;;;;;;;6.07;89.39;101029.50;5159578;27;20539;-61
2020/12/17 08:48:54;;;;;;;36.63;18.10;;;;;;;6.17;89.50;101035.22;5159819;27;20546;-61
2020/12/17 08:51:22;;;;;;;36.93;18.40;;;;;;;6.18;89.30;101042.13;5158323;27;20476;-60
2020/12/17 08:53:49;;;;;;;34.63;18.67;;;;;;;6.22;89.46;101029.59;5160040;27;20459;-60
2020/12/17 08:56:17;;;;;;;34.70;17.80;;;;;;;6.22;89.21;101028.72;5157502;27;20486;-61
2020/12/17 08:58:46;;;;;;;32.93;16.70;;;;;;;6.13;89.88;101025.56;5159715;27;20448;-60
2020/12/17 09:01:26;;;;;;;38.37;17.70;;;;;;;6.13;89.73;101033.25;5157224;27;20484;-61
2020/12/17 09:03:54;;;;;;;35.60;18.43;;;;;;;6.12;89.89;101037.50;5159574;27;20924;-61
2020/12/17 09:06:25;;;;;;;44.27;20.50;;;;;;;6.14;90.02;101037.56;5157581;27;20482;-60
2020/12/17 09:08:52;;;;;;;31.17;17.77;;;;;;;6.24;89.59;101044.22;5159431;27;20455;-59
2020/12/17 09:11:32;;;;;;;36.97;17.37;;;;;;;6.25;89.30;101048.53;5157921;27;20467;-60
2020/12/17 09:14:05;;;;;;;38.10;16.87;;;;;;;6.29;89.45;101048.81;5158977;27;20539;-61
2020/12/17 09:16:33;;;;;;;31.10;17.37;;;;;;;6.37;89.36;101043.31;5158806;27;20480;-60
2020/12/17 09:19:02;;;;;;;34.47;16.87;;;;;;;6.37;88.95;101045.84;5159219;27;20456;-61
2020/12/17 09:21:29;;;;;;;31.47;16.80;;;;;;;6.37;89.17;101031.38;5158938;27;20465;-60
2020/12/17 09:23:57;;;;;;;31.07;15.90;;;;;;;6.37;89.02;101039.06;5158904;27;20818;-59
2020/12/17 09:26:24;;;;;;;28.80;15.20;;;;;;;6.37;89.61;101048.44;5157478;27;20521;-61
2020/12/17 09:28:56;;;;;;;36.53;15.97;;;;;;;6.38;89.97;101050.19;5159583;27;20446;-59
2020/12/17 09:31:32;;;;;;;35.80;17.50;;;;;;;6.45;89.83;101042.09;5157229;27;20480;-60
2020/12/17 09:34:20;;;;;;;31.97;17.10;;;;;;;6.52;89.92;101040.81;5158021;27;20451;-60
2020/12/17 09:36:55;;;;;;;35.27;18.20;;;;;;;6.52;90.07;101040.81;5158029;27;20477;-60
2020/12/17 09:39:22;;;;;;;34.13;16.97;;;;;;;6.48;90.46;101042.31;5157800;27;20759;-60
2020/12/17 09:41:54;;;;;;;34.67;17.50;;;;;;;6.48;90.53;101034.63;5158417;27;20465;-60
2020/12/17 09:44:32;;;;;;;35.27;18.67;;;;;;;6.47;91.37;101046.53;5156506;27;22321;-59
2020/12/17 09:47:00;;;;;;;36.50;17.23;;;;;;;6.51;91.14;101041.63;5158605;27;20952;-60
2020/12/17 09:49:30;;;;;;;37.77;18.93;;;;;;;6.51;91.47;101044.19;5157033;27;20521;-60
2020/12/17 09:52:02;;;;;;;34.93;17.60;;;;;;;6.48;91.60;101043.19;5158334;27;20827;-60
2020/12/17 09:54:29;;;;;;;37.37;19.77;;;;;;;6.53;91.53;101046.06;5156444;27;20476;-61
2020/12/17 09:57:06;;;;;;;35.30;17.37;;;;;;;6.52;91.86;101036.59;5158629;27;20773;-61
2020/12/17 09:59:33;;;;;;;39.80;19.60;;;;;;;6.62;91.87;101038.91;5154730;27;20467;-57
2020/12/17 10:02:02;;;;;;;35.43;18.23;;;;;;;6.60;91.72;101047.31;5157784;27;20548;-54
2020/12/17 10:04:29;;;;;;;32.23;16.53;;;;;;;6.58;92.08;101038.63;5155993;27;20496;-55
2020/12/17 10:06:56;;;;;;;34.07;17.03;;;;;;;6.66;91.87;101046.81;5158083;27;20457;-57
2020/12/17 10:09:24;;;;;;;27.00;14.40;;;;;;;6.58;92.03;101039.53;5156656;27;20918;-57
2020/12/17 10:11:52;;;;;;;30.63;15.90;;;;;;;6.67;92.09;101049.47;5157949;27;20481;-56
2020/12/17 10:14:19;;;;;;;39.17;18.67;;;;;;;6.71;91.85;101046.31;5156120;27;20472;-53
2020/12/17 10:16:47;;;;;;;38.47;19.07;;;;;;;6.73;92.20;101057.53;5157830;27;20982;-55
2020/12/17 10:19:16;;;;;;;34.73;17.23;;;;;;;6.76;92.44;101054.28;5156004;27;20765;-58
2020/12/17 10:21:43;;;;;;;32.33;17.27;;;;;;;6.72;92.39;101052.34;5158148;27;20507;-58
2020/12/17 10:24:10;;;;;;;36.10;16.57;;;;;;;6.84;92.04;101059.88;5155976;27;20549;-56
2020/12/17 10:26:37;;;;;;;31.70;17.00;;;;;;;6.83;92.41;101056.41;5157914;27;20489;-57
2020/12/17 10:29:21;;;;;;;27.17;13.93;;;;;;;6.81;92.57;101060.56;5156580;27;20468;-60
2020/12/17 10:31:48;;;;;;;33.23;15.90;;;;;;;6.84;92.84;101053.09;5157810;27;20541;-60
2020/12/17 10:34:17;;;;;;;41.03;15.43;;;;;;;6.93;92.31;101057.00;5155044;27;20552;-61
2020/12/17 10:36:44;;;;;;;26.90;13.00;;;;;;;6.98;92.22;101059.03;5137195;27;20489;-60
2020/12/17 10:39:12;;;;;;;31.10;15.40;;;;;;;7.03;92.39;101064.47;5126399;28;20580;-60
2020/12/17 10:41:39;;;;;;;28.53;14.90;;;;;;;7.08;92.27;101059.63;5136926;28;20491;-61
2020/12/17 10:44:06;;;;;;;27.27;12.87;;;;;;;7.05;92.61;101060.31;5134808;27;20564;-60
2020/12/17 10:46:35;;;;;;;27.47;14.43;;;;;;;7.04;92.87;101061.13;5140790;27;20519;-60
2020/12/17 10:49:06;;;;;;;30.93;16.67;;;;;;;7.07;93.21;101056.16;5147658;27;20551;-60
2020/12/17 10:51:33;;;;;;;29.47;17.37;;;;;;;7.11;93.07;101063.25;5161833;27;20487;-60
2020/12/17 10:54:01;;;;;;;20.37;8.83;;;;;;;7.11;92.81;101063.25;5161770;27;20449;-60
2020/12/17 10:56:27;;;;;;;24.57;12.63;;;;;;;7.18;92.53;101059.38;5161173;27;20513;-60
2020/12/17 10:58:54;;;;;;;29.30;16.77;;;;;;;7.21;92.81;101056.09;5161759;27;20772;-59
2020/12/17 11:01:22;;;;;;;25.60;13.63;;;;;;;7.24;92.85;101074.28;5159685;27;20856;-60
2020/12/17 11:03:50;;;;;;;25.83;11.10;;;;;;;7.26;92.70;101064.97;5162110;27;20453;-60
2020/12/17 11:06:18;;;;;;;32.30;14.63;;;;;;;7.31;92.79;101071.28;5159726;27;20508;-60
2020/12/17 11:08:45;;;;;;;35.87;15.47;;;;;;;7.33;93.10;101067.09;5161450;27;20466;-58
2020/12/17 11:11:12;;;;;;;26.83;13.93;;;;;;;7.32;93.20;101067.03;5159838;27;20559;-60
2020/12/17 11:13:40;;;;;;;11.57;7.37;;;;;;;7.30;92.93;101074.63;5161543;27;20453;-60
2020/12/17 11:16:06;;;;;;;14.73;5.40;;;;;;;7.33;92.88;101069.69;5159474;27;20807;-60
2020/12/17 11:18:33;;;;;;;13.50;6.63;;;;;;;7.32;93.08;101065.34;5159352;27;20560;-60
2020/12/17 11:21:00;;;;;;;20.70;8.70;;;;;;;7.29;93.34;101068.59;5159508;27;20481;-61
2020/12/17 11:23:27;;;;;;;19.77;10.00;;;;;;;7.29;93.50;101067.75;5161483;27;20474;-60